sensor_id;sensor_type;location;lat;lon;timestamp;pressure;altitude;pressure_sealevel;temperature;humidity
25510;BME280;13413;52.336;21.200;2023-04-15T00:01:10;99747.27;;;12.41;63.22
25510;BME280;13413;52.336;21.200;2023-04-15T00:04:04;99748.71;;;12.42;63.29
25510;BME280;13413;52.336;21.200;2023-04-15T00:06:58;99749.45;;;12.45;63.21
25510;BME280;13413;52.336;21.200;2023-04-15T00:09:52;99747.23;;;12.44;63.32
25510;BME280;13413;52.336;21.200;2023-04-15T00:12:46;99747.61;;;12.45;63.26
25510;BME280;13413;52.336;21.200;2023-04-15T00:15:40;99750.88;;;12.42;63.29
25510;BME280;13413;52.336;21.200;2023-04-15T00:18:34;99750.18;;;12.42;63.31
25510;BME280;13413;52.336;21.200;2023-04-15T00:21:28;99747.65;;;12.42;63.37
25510;BME280;13413;52.336;21.200;2023-04-15T00:24:22;99744.77;;;12.41;63.42
25510;BME280;13413;52.336;21.200;2023-04-15T00:27:16;99741.42;;;12.38;63.43
25510;BME280;13413;52.336;21.200;2023-04-15T00:30:11;99737.55;;;12.40;63.50
25510;BME280;13413;52.336;21.200;2023-04-15T00:33:06;99739.72;;;12.39;63.41
25510;BME280;13413;52.336;21.200;2023-04-15T00:43:18;99740.08;;;12.41;63.79
25510;BME280;13413;52.336;21.200;2023-04-15T00:46:13;99736.77;;;12.40;63.96
25510;BME280;13413;52.336;21.200;2023-04-15T00:49:09;99738.73;;;12.36;64.16
25510;BME280;13413;52.336;21.200;2023-04-15T00:54:57;99735.37;;;12.37;64.16
25510;BME280;13413;52.336;21.200;2023-04-15T00:57:51;99735.29;;;12.36;64.10
25510;BME280;13413;52.336;21.200;2023-04-15T01:00:45;99733.94;;;12.35;64.16
25510;BME280;13413;52.336;21.200;2023-04-15T01:03:38;99734.23;;;12.36;64.16
25510;BME280;13413;52.336;21.200;2023-04-15T01:06:33;99733.61;;;12.39;64.21
25510;BME280;13413;52.336;21.200;2023-04-15T01:09:27;99728.45;;;12.37;64.38
25510;BME280;13413;52.336;21.200;2023-04-15T01:12:21;99731.65;;;12.36;64.24
25510;BME280;13413;52.336;21.200;2023-04-15T01:15:16;99729.69;;;12.36;64.23
25510;BME280;13413;52.336;21.200;2023-04-15T01:18:11;99727.59;;;12.37;64.31
25510;BME280;13413;52.336;21.200;2023-04-15T01:21:05;99730.83;;;12.34;64.29
25510;BME280;13413;52.336;21.200;2023-04-15T01:24:00;99733.48;;;12.38;64.37
25510;BME280;13413;52.336;21.200;2023-04-15T01:26:55;99731.37;;;12.38;64.40
25510;BME280;13413;52.336;21.200;2023-04-15T01:29:49;99730.83;;;12.38;64.40
25510;BME280;13413;52.336;21.200;2023-04-15T01:32:43;99729.06;;;12.38;64.45
25510;BME280;13413;52.336;21.200;2023-04-15T01:35:36;99728.86;;;12.36;64.53
25510;BME280;13413;52.336;21.200;2023-04-15T01:38:31;99729.52;;;12.35;64.52
25510;BME280;13413;52.336;21.200;2023-04-15T01:41:27;99727.85;;;12.35;64.61
25510;BME280;13413;52.336;21.200;2023-04-15T01:44:22;99728.21;;;12.34;64.75
25510;BME280;13413;52.336;21.200;2023-04-15T01:47:16;99726.48;;;12.32;64.88
25510;BME280;13413;52.336;21.200;2023-04-15T01:50:11;99728.04;;;12.34;64.95
25510;BME280;13413;52.336;21.200;2023-04-15T01:53:03;99728.05;;;12.35;64.93
25510;BME280;13413;52.336;21.200;2023-04-15T01:55:58;99723.25;;;12.34;65.07
25510;BME280;13413;52.336;21.200;2023-04-15T01:58:52;99722.98;;;12.35;65.30
25510;BME280;13413;52.336;21.200;2023-04-15T02:01:45;99725.25;;;12.30;65.86
25510;BME280;13413;52.336;21.200;2023-04-15T02:04:40;99725.44;;;12.25;66.05
25510;BME280;13413;52.336;21.200;2023-04-15T02:07:34;99719.99;;;12.21;66.33
25510;BME280;13413;52.336;21.200;2023-04-15T02:10:28;99717.41;;;12.17;66.56
25510;BME280;13413;52.336;21.200;2023-04-15T02:13:22;99719.45;;;12.13;66.66
25510;BME280;13413;52.336;21.200;2023-04-15T02:16:19;99724.88;;;12.11;66.80
25510;BME280;13413;52.336;21.200;2023-04-15T02:19:12;99724.59;;;12.08;67.02
25510;BME280;13413;52.336;21.200;2023-04-15T02:22:07;99719.58;;;12.04;67.03
25510;BME280;13413;52.336;21.200;2023-04-15T02:25:01;99720.41;;;12.03;67.22
25510;BME280;13413;52.336;21.200;2023-04-15T02:27:57;99720.10;;;11.98;67.49
25510;BME280;13413;52.336;21.200;2023-04-15T02:30:52;99719.06;;;11.93;67.95
25510;BME280;13413;52.336;21.200;2023-04-15T02:33:46;99716.48;;;11.91;68.09
25510;BME280;13413;52.336;21.200;2023-04-15T02:36:40;99712.35;;;11.90;68.05
25510;BME280;13413;52.336;21.200;2023-04-15T02:39:34;99711.77;;;11.87;68.51
25510;BME280;13413;52.336;21.200;2023-04-15T02:42:28;99708.50;;;11.86;68.53
25510;BME280;13413;52.336;21.200;2023-04-15T02:45:22;99708.65;;;11.85;68.67
25510;BME280;13413;52.336;21.200;2023-04-15T02:48:17;99712.70;;;11.84;68.29
25510;BME280;13413;52.336;21.200;2023-04-15T02:51:18;99713.84;;;11.87;68.53
25510;BME280;13413;52.336;21.200;2023-04-15T02:54:11;99717.94;;;11.88;68.50
25510;BME280;13413;52.336;21.200;2023-04-15T03:03:03;99714.65;;;11.80;69.21
25510;BME280;13413;52.336;21.200;2023-04-15T03:05:55;99720.19;;;11.77;69.38
25510;BME280;13413;52.336;21.200;2023-04-15T03:08:48;99718.48;;;11.72;69.74
25510;BME280;13413;52.336;21.200;2023-04-15T03:11:43;99719.86;;;11.71;69.96
25510;BME280;13413;52.336;21.200;2023-04-15T03:14:37;99718.66;;;11.68;70.04
25510;BME280;13413;52.336;21.200;2023-04-15T03:17:34;99716.80;;;11.64;70.19
25510;BME280;13413;52.336;21.200;2023-04-15T03:20:29;99719.34;;;11.65;70.19
25510;BME280;13413;52.336;21.200;2023-04-15T03:23:23;99719.10;;;11.66;70.17
25510;BME280;13413;52.336;21.200;2023-04-15T03:26:27;99720.60;;;11.66;70.18
25510;BME280;13413;52.336;21.200;2023-04-15T03:29:21;99718.57;;;11.68;70.36
25510;BME280;13413;52.336;21.200;2023-04-15T03:32:15;99722.92;;;11.70;70.24
25510;BME280;13413;52.336;21.200;2023-04-15T03:35:10;99722.00;;;11.68;70.21
25510;BME280;13413;52.336;21.200;2023-04-15T03:38:04;99724.36;;;11.72;70.02
25510;BME280;13413;52.336;21.200;2023-04-15T03:40:58;99723.14;;;11.72;70.17
25510;BME280;13413;52.336;21.200;2023-04-15T03:43:52;99721.42;;;11.72;70.12
25510;BME280;13413;52.336;21.200;2023-04-15T03:46:46;99724.77;;;11.75;70.04
25510;BME280;13413;52.336;21.200;2023-04-15T03:49:40;99722.48;;;11.76;70.09
25510;BME280;13413;52.336;21.200;2023-04-15T03:52:34;99724.95;;;11.78;70.18
25510;BME280;13413;52.336;21.200;2023-04-15T03:55:28;99727.60;;;11.78;70.01
25510;BME280;13413;52.336;21.200;2023-04-15T03:58:22;99731.32;;;11.80;69.97
25510;BME280;13413;52.336;21.200;2023-04-15T04:01:16;99733.81;;;11.80;70.09
25510;BME280;13413;52.336;21.200;2023-04-15T04:04:10;99732.14;;;11.79;70.36
25510;BME280;13413;52.336;21.200;2023-04-15T04:07:04;99735.16;;;11.78;70.26
25510;BME280;13413;52.336;21.200;2023-04-15T04:09:58;99732.95;;;11.78;70.34
25510;BME280;13413;52.336;21.200;2023-04-15T04:12:52;99734.45;;;11.78;70.45
25510;BME280;13413;52.336;21.200;2023-04-15T04:15:46;99735.81;;;11.80;70.48
25510;BME280;13413;52.336;21.200;2023-04-15T04:18:42;99735.23;;;11.78;70.92
25510;BME280;13413;52.336;21.200;2023-04-15T04:21:37;99735.77;;;11.77;70.89
25510;BME280;13413;52.336;21.200;2023-04-15T04:24:31;99736.61;;;11.74;71.16
25510;BME280;13413;52.336;21.200;2023-04-15T04:27:25;99737.08;;;11.72;71.33
25510;BME280;13413;52.336;21.200;2023-04-15T04:30:19;99734.96;;;11.68;71.75
25510;BME280;13413;52.336;21.200;2023-04-15T04:33:13;99735.31;;;11.65;71.79
25510;BME280;13413;52.336;21.200;2023-04-15T04:36:08;99740.69;;;11.60;72.17
25510;BME280;13413;52.336;21.200;2023-04-15T04:39:02;99739.68;;;11.58;72.11
25510;BME280;13413;52.336;21.200;2023-04-15T04:41:56;99740.39;;;11.58;72.50
25510;BME280;13413;52.336;21.200;2023-04-15T04:44:50;99744.64;;;11.51;72.78
25510;BME280;13413;52.336;21.200;2023-04-15T04:47:47;99745.16;;;11.50;72.81
25510;BME280;13413;52.336;21.200;2023-04-15T04:50:41;99736.86;;;11.46;73.35
25510;BME280;13413;52.336;21.200;2023-04-15T04:53:35;99741.45;;;11.43;73.15
25510;BME280;13413;52.336;21.200;2023-04-15T04:56:29;99738.67;;;11.43;73.25
25510;BME280;13413;52.336;21.200;2023-04-15T04:59:23;99738.14;;;11.43;73.36
25510;BME280;13413;52.336;21.200;2023-04-15T05:02:24;99738.25;;;11.42;73.48
25510;BME280;13413;52.336;21.200;2023-04-15T05:05:18;99739.36;;;11.43;73.73
25510;BME280;13413;52.336;21.200;2023-04-15T05:08:12;99741.04;;;11.41;73.77
25510;BME280;13413;52.336;21.200;2023-04-15T05:11:06;99741.18;;;11.39;73.88
25510;BME280;13413;52.336;21.200;2023-04-15T05:14:00;99744.21;;;11.37;74.12
25510;BME280;13413;52.336;21.200;2023-04-15T05:27:16;99744.83;;;11.34;74.55
25510;BME280;13413;52.336;21.200;2023-04-15T05:30:11;99745.16;;;11.34;74.59
25510;BME280;13413;52.336;21.200;2023-04-15T05:33:05;99744.16;;;11.38;74.67
25510;BME280;13413;52.336;21.200;2023-04-15T05:35:59;99742.91;;;11.34;75.22
25510;BME280;13413;52.336;21.200;2023-04-15T05:41:47;99743.86;;;11.33;75.07
25510;BME280;13413;52.336;21.200;2023-04-15T05:44:41;99745.20;;;11.34;75.19
25510;BME280;13413;52.336;21.200;2023-04-15T05:47:35;99748.17;;;11.33;75.22
25510;BME280;13413;52.336;21.200;2023-04-15T05:50:29;99748.60;;;11.29;75.57
25510;BME280;13413;52.336;21.200;2023-04-15T05:53:23;99750.27;;;11.29;75.42
25510;BME280;13413;52.336;21.200;2023-04-15T05:56:17;99752.81;;;11.31;75.61
25510;BME280;13413;52.336;21.200;2023-04-15T05:59:11;99754.05;;;11.31;75.61
25510;BME280;13413;52.336;21.200;2023-04-15T06:02:05;99754.11;;;11.30;75.50
25510;BME280;13413;52.336;21.200;2023-04-15T06:04:59;99758.64;;;11.28;75.74
25510;BME280;13413;52.336;21.200;2023-04-15T06:07:53;99751.27;;;11.26;75.76
25510;BME280;13413;52.336;21.200;2023-04-15T06:10:47;99753.34;;;11.28;75.71
25510;BME280;13413;52.336;21.200;2023-04-15T06:13:42;99756.20;;;11.29;75.73
25510;BME280;13413;52.336;21.200;2023-04-15T06:16:36;99758.27;;;11.29;75.90
25510;BME280;13413;52.336;21.200;2023-04-15T06:19:30;99763.54;;;11.27;76.17
25510;BME280;13413;52.336;21.200;2023-04-15T06:22:24;99763.89;;;11.25;76.17
25510;BME280;13413;52.336;21.200;2023-04-15T06:25:18;99765.08;;;11.22;76.40
25510;BME280;13413;52.336;21.200;2023-04-15T06:28:13;99760.80;;;11.22;76.38
25510;BME280;13413;52.336;21.200;2023-04-15T06:31:07;99766.27;;;11.21;76.50
25510;BME280;13413;52.336;21.200;2023-04-15T06:34:01;99767.64;;;11.24;76.27
25510;BME280;13413;52.336;21.200;2023-04-15T06:36:57;99772.23;;;11.26;76.35
25510;BME280;13413;52.336;21.200;2023-04-15T06:39:52;99776.30;;;11.26;76.80
25510;BME280;13413;52.336;21.200;2023-04-15T06:42:46;99774.48;;;11.21;76.66
25510;BME280;13413;52.336;21.200;2023-04-15T06:45:40;99777.75;;;11.21;76.58
25510;BME280;13413;52.336;21.200;2023-04-15T06:48:34;99776.95;;;11.24;76.72
25510;BME280;13413;52.336;21.200;2023-04-15T06:51:28;99783.10;;;11.22;76.81
25510;BME280;13413;52.336;21.200;2023-04-15T06:54:21;99782.94;;;11.22;76.76
25510;BME280;13413;52.336;21.200;2023-04-15T06:57:16;99784.77;;;11.22;76.86
25510;BME280;13413;52.336;21.200;2023-04-15T07:00:13;99789.11;;;11.22;76.83
25510;BME280;13413;52.336;21.200;2023-04-15T07:03:07;99789.73;;;11.23;76.99
25510;BME280;13413;52.336;21.200;2023-04-15T07:06:01;99793.59;;;11.21;77.11
25510;BME280;13413;52.336;21.200;2023-04-15T07:08:56;99793.28;;;11.19;77.11
25510;BME280;13413;52.336;21.200;2023-04-15T07:11:50;99798.33;;;11.15;77.39
25510;BME280;13413;52.336;21.200;2023-04-15T07:14:44;99802.98;;;11.15;77.13
25510;BME280;13413;52.336;21.200;2023-04-15T07:17:38;99797.83;;;11.13;77.93
25510;BME280;13413;52.336;21.200;2023-04-15T07:20:32;99799.23;;;11.11;77.51
25510;BME280;13413;52.336;21.200;2023-04-15T07:23:26;99800.59;;;11.16;77.47
25510;BME280;13413;52.336;21.200;2023-04-15T07:26:20;99799.60;;;11.18;77.38
25510;BME280;13413;52.336;21.200;2023-04-15T07:29:13;99800.20;;;11.22;77.48
25510;BME280;13413;52.336;21.200;2023-04-15T07:32:08;99797.48;;;11.22;77.71
25510;BME280;13413;52.336;21.200;2023-04-15T07:35:02;99802.45;;;11.21;77.64
25510;BME280;13413;52.336;21.200;2023-04-15T07:37:54;99802.92;;;11.25;77.59
25510;BME280;13413;52.336;21.200;2023-04-15T07:46:32;99796.85;;;11.35;77.49
25510;BME280;13413;52.336;21.200;2023-04-15T07:49:27;99798.80;;;11.35;77.75
25510;BME280;13413;52.336;21.200;2023-04-15T07:52:21;99798.01;;;11.33;77.72
25510;BME280;13413;52.336;21.200;2023-04-15T07:55:15;99795.94;;;11.33;77.52
25510;BME280;13413;52.336;21.200;2023-04-15T07:58:10;99794.91;;;11.33;77.80
25510;BME280;13413;52.336;21.200;2023-04-15T08:01:04;99796.02;;;11.34;77.83
25510;BME280;13413;52.336;21.200;2023-04-15T08:03:58;99797.00;;;11.35;77.58
25510;BME280;13413;52.336;21.200;2023-04-15T08:06:52;99792.00;;;11.39;77.78
25510;BME280;13413;52.336;21.200;2023-04-15T08:09:47;99795.27;;;11.38;77.82
25510;BME280;13413;52.336;21.200;2023-04-15T08:12:41;99793.51;;;11.39;77.86
25510;BME280;13413;52.336;21.200;2023-04-15T08:15:35;99799.20;;;11.45;77.84
25510;BME280;13413;52.336;21.200;2023-04-15T08:18:29;99799.90;;;11.47;77.83
25510;BME280;13413;52.336;21.200;2023-04-15T08:21:36;99798.80;;;11.47;77.90
25510;BME280;13413;52.336;21.200;2023-04-15T08:24:31;99797.73;;;11.45;77.87
25510;BME280;13413;52.336;21.200;2023-04-15T08:27:25;99796.10;;;11.46;77.96
25510;BME280;13413;52.336;21.200;2023-04-15T08:30:19;99800.04;;;11.49;77.81
25510;BME280;13413;52.336;21.200;2023-04-15T08:33:13;99798.60;;;11.50;78.11
25510;BME280;13413;52.336;21.200;2023-04-15T08:36:08;99797.73;;;11.53;78.16
25510;BME280;13413;52.336;21.200;2023-04-15T08:39:01;99799.39;;;11.50;78.10
25510;BME280;13413;52.336;21.200;2023-04-15T08:41:58;99802.90;;;11.51;78.14
25510;BME280;13413;52.336;21.200;2023-04-15T08:44:54;99801.75;;;11.55;78.11
25510;BME280;13413;52.336;21.200;2023-04-15T08:47:47;99804.87;;;11.59;78.23
25510;BME280;13413;52.336;21.200;2023-04-15T08:50:45;99806.63;;;11.59;78.21
25510;BME280;13413;52.336;21.200;2023-04-15T08:53:39;99807.62;;;11.58;78.19
25510;BME280;13413;52.336;21.200;2023-04-15T08:56:33;99807.41;;;11.59;78.34
25510;BME280;13413;52.336;21.200;2023-04-15T09:02:22;99810.48;;;11.71;78.59
25510;BME280;13413;52.336;21.200;2023-04-15T09:05:17;99812.16;;;11.75;78.48
25510;BME280;13413;52.336;21.200;2023-04-15T09:08:11;99811.56;;;11.80;78.46
25510;BME280;13413;52.336;21.200;2023-04-15T09:11:06;99810.47;;;11.82;78.36
25510;BME280;13413;52.336;21.200;2023-04-15T09:14:00;99810.66;;;11.79;78.24
25510;BME280;13413;52.336;21.200;2023-04-15T09:17:01;99809.95;;;11.76;78.21
25510;BME280;13413;52.336;21.200;2023-04-15T09:20:10;99807.75;;;11.76;78.32
25510;BME280;13413;52.336;21.200;2023-04-15T09:23:12;99812.25;;;11.78;78.25
25510;BME280;13413;52.336;21.200;2023-04-15T09:26:07;99811.88;;;11.77;78.32
25510;BME280;13413;52.336;21.200;2023-04-15T09:29:06;99810.73;;;11.80;78.44
25510;BME280;13413;52.336;21.200;2023-04-15T09:32:10;99813.41;;;11.83;78.30
25510;BME280;13413;52.336;21.200;2023-04-15T09:35:11;99819.77;;;11.84;78.21
25510;BME280;13413;52.336;21.200;2023-04-15T09:38:06;99819.48;;;11.86;78.40
25510;BME280;13413;52.336;21.200;2023-04-15T09:41:01;99818.83;;;11.86;78.24
25510;BME280;13413;52.336;21.200;2023-04-15T09:43:55;99821.73;;;11.88;78.21
25510;BME280;13413;52.336;21.200;2023-04-15T09:46:48;99821.40;;;11.88;78.38
25510;BME280;13413;52.336;21.200;2023-04-15T09:49:56;99821.68;;;11.90;78.61
25510;BME280;13413;52.336;21.200;2023-04-15T09:52:49;99823.36;;;11.91;78.39
25510;BME280;13413;52.336;21.200;2023-04-15T09:55:47;99826.27;;;11.90;78.40
25510;BME280;13413;52.336;21.200;2023-04-15T09:58:41;99825.95;;;11.87;78.41
25510;BME280;13413;52.336;21.200;2023-04-15T10:07:23;99831.98;;;11.94;78.34
25510;BME280;13413;52.336;21.200;2023-04-15T10:10:18;99837.77;;;11.97;78.38
25510;BME280;13413;52.336;21.200;2023-04-15T10:13:15;99835.69;;;12.02;78.35
25510;BME280;13413;52.336;21.200;2023-04-15T10:16:13;99833.96;;;12.03;78.37
25510;BME280;13413;52.336;21.200;2023-04-15T10:19:09;99836.75;;;12.03;78.41
25510;BME280;13413;52.336;21.200;2023-04-15T10:22:04;99833.38;;;12.08;78.49
25510;BME280;13413;52.336;21.200;2023-04-15T10:24:59;99835.86;;;12.08;78.63
25510;BME280;13413;52.336;21.200;2023-04-15T10:27:53;99829.14;;;12.15;78.75
25510;BME280;13413;52.336;21.200;2023-04-15T10:30:47;99826.72;;;12.20;78.58
25510;BME280;13413;52.336;21.200;2023-04-15T10:33:42;99828.77;;;12.22;78.79
25510;BME280;13413;52.336;21.200;2023-04-15T10:36:57;99831.14;;;12.32;79.08
25510;BME280;13413;52.336;21.200;2023-04-15T10:39:53;99834.65;;;12.33;78.64
25510;BME280;13413;52.336;21.200;2023-04-15T10:43:04;99830.48;;;12.34;78.84
25510;BME280;13413;52.336;21.200;2023-04-15T10:45:58;99835.02;;;12.35;78.60
25510;BME280;13413;52.336;21.200;2023-04-15T10:48:54;99831.80;;;12.35;78.67
25510;BME280;13413;52.336;21.200;2023-04-15T10:51:50;99836.73;;;12.39;78.68
25510;BME280;13413;52.336;21.200;2023-04-15T10:54:45;99833.33;;;12.42;78.55
25510;BME280;13413;52.336;21.200;2023-04-15T10:57:41;99835.22;;;12.42;78.62
25510;BME280;13413;52.336;21.200;2023-04-15T11:00:37;99838.35;;;12.48;78.83
25510;BME280;13413;52.336;21.200;2023-04-15T11:03:38;99836.95;;;12.53;78.64
25510;BME280;13413;52.336;21.200;2023-04-15T11:06:46;99835.55;;;12.56;78.67
25510;BME280;13413;52.336;21.200;2023-04-15T11:09:58;99833.38;;;12.57;78.51
25510;BME280;13413;52.336;21.200;2023-04-15T11:12:52;99837.42;;;12.58;78.55
25510;BME280;13413;52.336;21.200;2023-04-15T11:15:47;99836.41;;;12.62;78.46
25510;BME280;13413;52.336;21.200;2023-04-15T11:18:40;99838.01;;;12.62;78.29
25510;BME280;13413;52.336;21.200;2023-04-15T11:21:35;99835.77;;;12.58;78.21
25510;BME280;13413;52.336;21.200;2023-04-15T11:24:30;99836.77;;;12.55;77.85
25510;BME280;13413;52.336;21.200;2023-04-15T11:27:24;99837.70;;;12.54;78.13
25510;BME280;13413;52.336;21.200;2023-04-15T11:30:23;99838.33;;;12.51;78.27
25510;BME280;13413;52.336;21.200;2023-04-15T11:33:16;99839.22;;;12.51;78.18
25510;BME280;13413;52.336;21.200;2023-04-15T11:36:11;99840.94;;;12.53;78.23
25510;BME280;13413;52.336;21.200;2023-04-15T11:39:07;99841.80;;;12.53;78.21
25510;BME280;13413;52.336;21.200;2023-04-15T11:42:02;99842.58;;;12.54;78.21
25510;BME280;13413;52.336;21.200;2023-04-15T11:45:07;99844.12;;;12.53;78.08
25510;BME280;13413;52.336;21.200;2023-04-15T11:48:07;99847.11;;;12.53;78.14
25510;BME280;13413;52.336;21.200;2023-04-15T11:51:04;99840.24;;;12.51;77.97
25510;BME280;13413;52.336;21.200;2023-04-15T11:54:00;99846.48;;;12.55;78.42
25510;BME280;13413;52.336;21.200;2023-04-15T11:56:54;99846.19;;;12.58;78.20
25510;BME280;13413;52.336;21.200;2023-04-15T11:59:47;99846.83;;;12.65;78.27
25510;BME280;13413;52.336;21.200;2023-04-15T12:02:42;99850.27;;;12.68;78.23
25510;BME280;13413;52.336;21.200;2023-04-15T12:05:37;99852.66;;;12.73;78.18
25510;BME280;13413;52.336;21.200;2023-04-15T12:08:57;99859.58;;;12.73;77.80
25510;BME280;13413;52.336;21.200;2023-04-15T12:11:55;99862.44;;;12.70;77.43
25510;BME280;13413;52.336;21.200;2023-04-15T12:14:52;99866.04;;;12.67;77.62
25510;BME280;13413;52.336;21.200;2023-04-15T12:17:45;99868.86;;;12.70;77.66
25510;BME280;13413;52.336;21.200;2023-04-15T12:27:05;99882.50;;;12.73;77.72
25510;BME280;13413;52.336;21.200;2023-04-15T12:30:06;99879.91;;;12.70;77.55
25510;BME280;13413;52.336;21.200;2023-04-15T12:33:01;99882.96;;;12.61;77.28
25510;BME280;13413;52.336;21.200;2023-04-15T12:35:55;99884.58;;;12.57;77.32
25510;BME280;13413;52.336;21.200;2023-04-15T12:38:50;99882.73;;;12.52;77.38
25510;BME280;13413;52.336;21.200;2023-04-15T12:41:44;99886.05;;;12.48;77.54
25510;BME280;13413;52.336;21.200;2023-04-15T12:44:39;99893.72;;;12.38;77.42
25510;BME280;13413;52.336;21.200;2023-04-15T12:47:33;99901.42;;;12.31;77.53
25510;BME280;13413;52.336;21.200;2023-04-15T12:50:27;99908.10;;;12.26;77.84
25510;BME280;13413;52.336;21.200;2023-04-15T12:53:21;99910.14;;;12.23;77.72
25510;BME280;13413;52.336;21.200;2023-04-15T12:56:15;99909.34;;;12.12;77.18
25510;BME280;13413;52.336;21.200;2023-04-15T13:02:02;99922.88;;;12.05;77.20
25510;BME280;13413;52.336;21.200;2023-04-15T13:04:57;99927.23;;;11.95;76.93
25510;BME280;13413;52.336;21.200;2023-04-15T13:07:51;99929.64;;;11.88;77.24
25510;BME280;13413;52.336;21.200;2023-04-15T13:10:45;99926.02;;;11.85;77.27
25510;BME280;13413;52.336;21.200;2023-04-15T13:13:40;99930.88;;;11.80;77.24
25510;BME280;13413;52.336;21.200;2023-04-15T13:16:34;99934.83;;;11.81;77.39
25510;BME280;13413;52.336;21.200;2023-04-15T13:19:28;99940.41;;;11.84;77.38
25510;BME280;13413;52.336;21.200;2023-04-15T13:22:22;99946.92;;;11.86;77.30
25510;BME280;13413;52.336;21.200;2023-04-15T13:25:16;99949.91;;;11.81;77.27
25510;BME280;13413;52.336;21.200;2023-04-15T13:28:11;99952.67;;;11.77;77.37
25510;BME280;13413;52.336;21.200;2023-04-15T13:31:06;99952.84;;;11.80;77.48
25510;BME280;13413;52.336;21.200;2023-04-15T13:34:00;99952.89;;;11.81;77.52
25510;BME280;13413;52.336;21.200;2023-04-15T13:36:54;99957.46;;;11.85;77.77
25510;BME280;13413;52.336;21.200;2023-04-15T13:39:49;99956.07;;;11.89;77.85
25510;BME280;13413;52.336;21.200;2023-04-15T13:42:44;99953.45;;;11.97;77.91
25510;BME280;13413;52.336;21.200;2023-04-15T13:45:39;99954.42;;;12.05;78.03
25510;BME280;13413;52.336;21.200;2023-04-15T13:48:33;99950.41;;;12.13;77.85
25510;BME280;13413;52.336;21.200;2023-04-15T13:51:27;99957.69;;;12.18;77.48
25510;BME280;13413;52.336;21.200;2023-04-15T13:54:21;99955.79;;;12.22;77.28
25510;BME280;13413;52.336;21.200;2023-04-15T13:57:15;99954.13;;;12.25;77.14
25510;BME280;13413;52.336;21.200;2023-04-15T14:00:11;99956.55;;;12.26;77.04
25510;BME280;13413;52.336;21.200;2023-04-15T14:03:05;99960.52;;;12.25;76.82
25510;BME280;13413;52.336;21.200;2023-04-15T14:05:59;99955.61;;;12.29;76.86
25510;BME280;13413;52.336;21.200;2023-04-15T14:08:53;99957.55;;;12.37;77.09
25510;BME280;13413;52.336;21.200;2023-04-15T14:11:48;99955.45;;;12.44;76.97
25510;BME280;13413;52.336;21.200;2023-04-15T14:14:43;99957.77;;;12.50;76.85
25510;BME280;13413;52.336;21.200;2023-04-15T14:17:37;99961.23;;;12.51;76.50
25510;BME280;13413;52.336;21.200;2023-04-15T14:20:31;99962.81;;;12.54;76.66
25510;BME280;13413;52.336;21.200;2023-04-15T14:23:25;99967.36;;;12.50;76.45
25510;BME280;13413;52.336;21.200;2023-04-15T14:26:19;99970.37;;;12.46;76.40
25510;BME280;13413;52.336;21.200;2023-04-15T14:29:13;99968.80;;;12.45;76.25
25510;BME280;13413;52.336;21.200;2023-04-15T14:32:07;99972.83;;;12.40;75.86
25510;BME280;13413;52.336;21.200;2023-04-15T14:35:02;99973.55;;;12.37;76.06
25510;BME280;13413;52.336;21.200;2023-04-15T14:37:57;99973.60;;;12.39;76.21
25510;BME280;13413;52.336;21.200;2023-04-15T14:49:14;99980.29;;;12.52;75.31
25510;BME280;13413;52.336;21.200;2023-04-15T14:52:08;99986.64;;;12.53;75.60
25510;BME280;13413;52.336;21.200;2023-04-15T14:55:03;99990.58;;;12.56;75.36
25510;BME280;13413;52.336;21.200;2023-04-15T14:57:56;99995.55;;;12.60;75.37
25510;BME280;13413;52.336;21.200;2023-04-15T15:00:51;99997.55;;;12.64;75.14
25510;BME280;13413;52.336;21.200;2023-04-15T15:03:45;100003.13;;;12.67;75.00
25510;BME280;13413;52.336;21.200;2023-04-15T15:06:38;100004.23;;;12.75;74.92
25510;BME280;13413;52.336;21.200;2023-04-15T15:09:33;100004.81;;;12.87;74.97
25510;BME280;13413;52.336;21.200;2023-04-15T15:12:27;100005.89;;;12.91;74.53
25510;BME280;13413;52.336;21.200;2023-04-15T15:15:22;100012.72;;;12.89;74.01
25510;BME280;13413;52.336;21.200;2023-04-15T15:18:16;100013.15;;;12.81;73.85
25510;BME280;13413;52.336;21.200;2023-04-15T15:21:11;100008.34;;;12.79;73.85
25510;BME280;13413;52.336;21.200;2023-04-15T15:24:06;100007.38;;;12.74;73.62
25510;BME280;13413;52.336;21.200;2023-04-15T15:27:01;100015.09;;;12.68;73.54
25510;BME280;13413;52.336;21.200;2023-04-15T15:29:57;100023.50;;;12.64;73.57
25510;BME280;13413;52.336;21.200;2023-04-15T15:32:51;100025.13;;;12.61;73.57
25510;BME280;13413;52.336;21.200;2023-04-15T15:35:45;100028.31;;;12.62;73.68
25510;BME280;13413;52.336;21.200;2023-04-15T15:38:40;100027.78;;;12.62;73.38
25510;BME280;13413;52.336;21.200;2023-04-15T15:41:35;100031.70;;;12.59;73.08
25510;BME280;13413;52.336;21.200;2023-04-15T15:44:29;100034.47;;;12.57;73.16
25510;BME280;13413;52.336;21.200;2023-04-15T15:47:23;100033.01;;;12.59;73.46
25510;BME280;13413;52.336;21.200;2023-04-15T15:50:18;100032.35;;;12.64;73.25
25510;BME280;13413;52.336;21.200;2023-04-15T15:53:12;100033.92;;;12.68;73.12
25510;BME280;13413;52.336;21.200;2023-04-15T15:56:07;100027.02;;;12.69;73.06
25510;BME280;13413;52.336;21.200;2023-04-15T15:59:01;100021.83;;;12.73;72.84
25510;BME280;13413;52.336;21.200;2023-04-15T16:01:56;100032.76;;;12.73;72.59
25510;BME280;13413;52.336;21.200;2023-04-15T16:04:51;100038.52;;;12.71;72.68
25510;BME280;13413;52.336;21.200;2023-04-15T16:07:45;100037.45;;;12.70;72.60
25510;BME280;13413;52.336;21.200;2023-04-15T16:10:40;100042.89;;;12.69;72.51
25510;BME280;13413;52.336;21.200;2023-04-15T16:13:36;100045.31;;;12.64;72.08
25510;BME280;13413;52.336;21.200;2023-04-15T16:16:30;100050.88;;;12.56;71.87